Time;durP1;ratioP1;P1;durP2;ratioP2;P2;SDS_P1;SDS_P2;PMS_P1;PMS_P2;Temp;Humidity;BMP_temperature;BMP_pressure;BME280_temperature;BME280_humidity;BME280_pressure;Samples;Min_cycle;Max_cycle;Signal;HPM_P1;HPM_P2
2022/10/22 04:22:52;;;;;;;0.38;0.30;;;;;;;13.00;100.00;100009.06;5163435;27;20322;-66
2022/10/22 04:25:17;;;;;;;1.33;0.93;;;;;;;13.01;100.00;100002.72;5130157;27;20039;-66
2022/10/22 04:27:42;;;;;;;0.63;0.60;;;;;;;13.00;100.00;100006.41;5130218;27;20159;-66
2022/10/22 04:30:08;;;;;;;1.15;0.90;;;;;;;13.01;100.00;100006.19;5130363;27;20031;-67
2022/10/22 04:32:34;;;;;;;0.70;0.57;;;;;;;12.99;100.00;100010.09;5129962;27;20076;-67
2022/10/22 04:34:59;;;;;;;0.90;0.60;;;;;;;12.97;100.00;100009.44;5128738;28;20088;-67
2022/10/22 04:37:24;;;;;;;2.15;1.45;;;;;;;12.96;100.00;100005.13;5129845;27;20159;-66
2022/10/22 04:39:50;;;;;;;2.75;0.88;;;;;;;12.97;100.00;100010.28;5129920;27;20032;-67
2022/10/22 04:42:15;;;;;;;6.18;1.73;;;;;;;12.98;100.00;100011.13;5129479;27;20434;-67
2022/10/22 04:44:41;;;;;;;1.77;1.15;;;;;;;12.97;100.00;100007.59;5129778;27;20043;-66
2022/10/22 04:47:06;;;;;;;2.22;0.90;;;;;;;12.97;100.00;100014.81;5129677;27;20107;-67
2022/10/22 04:49:31;;;;;;;0.77;0.50;;;;;;;12.96;100.00;100016.66;5129937;27;20062;-67
2022/10/22 04:51:57;;;;;;;1.13;0.65;;;;;;;12.94;100.00;100012.53;5129351;27;20043;-66
2022/10/22 04:54:22;;;;;;;1.60;1.15;;;;;;;12.92;100.00;100015.41;5129606;27;20036;-67
2022/10/22 04:56:48;;;;;;;1.15;0.75;;;;;;;12.92;100.00;100017.25;5129492;27;20519;-66
2022/10/22 04:59:13;;;;;;;1.58;0.82;;;;;;;12.92;100.00;100022.59;5129561;27;20432;-66
2022/10/22 05:01:42;;;;;;;1.05;0.75;;;;;;;12.92;100.00;100014.56;5129175;27;20528;-67
2022/10/22 05:04:10;;;;;;;1.90;1.25;;;;;;;12.91;100.00;100019.09;5129449;27;20031;-66
2022/10/22 05:06:36;;;;;;;1.35;0.80;;;;;;;12.88;100.00;100015.97;5129314;27;20046;-67
2022/10/22 05:09:05;;;;;;;1.05;0.70;;;;;;;12.89;100.00;100014.94;5129352;27;20476;-67
2022/10/22 05:11:33;;;;;;;1.95;1.00;;;;;;;12.91;100.00;100037.81;5128791;27;20115;-67
2022/10/22 05:14:01;;;;;;;1.15;0.68;;;;;;;12.90;100.00;100021.94;5129285;27;20497;-67
2022/10/22 05:16:28;;;;;;;0.85;0.85;;;;;;;12.90;100.00;100032.63;5129384;27;20039;-67
2022/10/22 05:18:53;;;;;;;1.33;0.90;;;;;;;12.90;100.00;100043.34;5129540;27;20104;-67
2022/10/22 05:21:20;;;;;;;1.85;1.00;;;;;;;12.86;100.00;100039.41;5127558;27;20031;-67
2022/10/22 05:23:47;;;;;;;1.25;0.93;;;;;;;12.86;100.00;100045.59;5129047;27;20044;-66
2022/10/22 05:26:15;;;;;;;1.70;0.93;;;;;;;12.82;100.00;100035.47;5128899;27;20055;-67
2022/10/22 05:28:41;;;;;;;3.00;0.90;;;;;;;12.75;100.00;100046.91;5127638;28;20035;-67
2022/10/22 05:31:09;;;;;;;1.08;0.82;;;;;;;12.73;100.00;100059.66;5127274;27;20048;-66
2022/10/22 05:33:35;;;;;;;0.75;0.60;;;;;;;12.70;100.00;100051.19;5118910;27;20492;-67
2022/10/22 05:36:02;;;;;;;9.13;1.23;;;;;;;12.68;100.00;100062.06;5114998;28;20042;-66
2022/10/22 05:38:27;;;;;;;1.02;0.88;;;;;;;12.67;100.00;100075.63;5115096;28;20027;-67
2022/10/22 05:41:08;;;;;;;1.15;0.88;;;;;;;12.67;100.00;100073.78;5114804;28;20551;-67
2022/10/22 05:43:34;;;;;;;1.35;0.98;;;;;;;12.66;100.00;100082.00;5115044;28;20396;-67
2022/10/22 05:46:05;;;;;;;0.80;0.80;;;;;;;12.59;100.00;100075.75;5114852;28;20504;-66
2022/10/22 05:48:32;;;;;;;0.77;0.75;;;;;;;12.65;100.00;100080.31;5114944;28;20043;-67
2022/10/22 05:51:03;;;;;;;1.08;0.70;;;;;;;12.62;100.00;100081.53;5113254;28;20408;-67
2022/10/22 05:53:30;;;;;;;0.70;0.70;;;;;;;12.63;100.00;100088.53;5114867;28;20122;-68
2022/10/22 05:55:59;;;;;;;0.63;0.40;;;;;;;12.62;100.00;100099.41;5113410;28;20039;-67
2022/10/22 05:58:24;;;;;;;2.30;0.90;;;;;;;12.61;100.00;100101.25;5114896;28;20514;-66
2022/10/22 06:00:49;;;;;;;0.60;0.43;;;;;;;12.63;100.00;100095.72;5114355;28;20110;-67
2022/10/22 06:03:15;;;;;;;0.65;0.65;;;;;;;12.63;100.00;100109.91;5114518;28;20043;-68
2022/10/22 06:05:40;;;;;;;0.70;0.70;;;;;;;12.63;100.00;100099.22;5113051;28;20040;-67
2022/10/22 06:08:06;;;;;;;0.68;0.60;;;;;;;12.63;100.00;100109.06;5114356;28;20051;-68
2022/10/22 06:10:31;;;;;;;0.47;0.47;;;;;;;12.66;100.00;100106.88;5113835;28;20036;-68
2022/10/22 06:12:57;;;;;;;1.20;0.73;;;;;;;12.67;100.00;100107.69;5112961;28;20036;-68
2022/10/22 06:15:22;;;;;;;1.67;0.80;;;;;;;12.68;100.00;100110.16;5114281;28;20042;-66
2022/10/22 06:17:47;;;;;;;1.50;0.55;;;;;;;12.68;100.00;100107.50;5114183;28;20420;-68
2022/10/22 06:20:14;;;;;;;1.48;1.05;;;;;;;12.70;100.00;100113.47;5113876;28;20110;-68
2022/10/22 06:22:39;;;;;;;1.85;0.95;;;;;;;12.71;100.00;100115.16;5114060;28;20027;-68
2022/10/22 06:25:07;;;;;;;1.38;0.85;;;;;;;12.75;100.00;100116.41;5114092;28;20399;-68
2022/10/22 06:27:33;;;;;;;1.95;1.02;;;;;;;12.78;100.00;100112.53;5113837;28;20127;-68
2022/10/22 06:29:59;;;;;;;1.95;1.25;;;;;;;12.75;100.00;100107.56;5112601;28;20035;-66
2022/10/22 06:32:24;;;;;;;1.42;1.33;;;;;;;12.76;100.00;100126.06;5113695;28;20046;-67
2022/10/22 06:34:49;;;;;;;1.90;1.38;;;;;;;12.81;100.00;100130.03;5113819;28;20175;-67
2022/10/22 06:37:16;;;;;;;3.00;1.52;;;;;;;12.81;100.00;100140.72;5113675;28;20046;-68
2022/10/22 06:39:42;;;;;;;1.48;1.13;;;;;;;12.82;100.00;100147.72;5113706;28;20078;-67
2022/10/22 06:42:07;;;;;;;6.20;1.83;;;;;;;12.83;100.00;100144.84;5113432;28;20063;-67
2022/10/22 06:44:33;;;;;;;2.80;1.27;;;;;;;12.84;100.00;100143.81;5111382;28;20047;-68
2022/10/22 06:46:58;;;;;;;1.50;0.93;;;;;;;12.84;100.00;100132.31;5113551;28;20035;-67
2022/10/22 06:49:24;;;;;;;1.13;0.95;;;;;;;12.91;100.00;100143.88;5113611;28;20082;-67
2022/10/22 06:51:51;;;;;;;1.08;0.60;;;;;;;12.95;100.00;100139.81;5113107;28;20040;-68
2022/10/22 06:54:17;;;;;;;0.70;0.65;;;;;;;12.98;100.00;100142.97;5113468;28;20055;-68
2022/10/22 06:56:43;;;;;;;1.10;0.90;;;;;;;13.00;100.00;100156.97;5113402;27;20046;-66
2022/10/22 06:59:08;;;;;;;1.33;0.77;;;;;;;13.03;100.00;100155.75;5113402;28;20043;-68
2022/10/22 07:01:35;;;;;;;1.88;1.00;;;;;;;13.01;100.00;100158.59;5112938;28;20035;-70
2022/10/22 07:04:01;;;;;;;3.03;1.13;;;;;;;13.06;100.00;100167.91;5113303;28;20400;-70
2022/10/22 07:06:27;;;;;;;1.15;0.80;;;;;;;13.08;100.00;100169.38;5113167;28;20039;-69
2022/10/22 07:08:54;;;;;;;1.58;1.25;;;;;;;13.10;100.00;100166.50;5113123;28;20423;-70
2022/10/22 07:11:23;;;;;;;1.00;0.83;;;;;;;13.13;100.00;100177.66;5112916;28;20039;-69
2022/10/22 07:13:49;;;;;;;0.73;0.52;;;;;;;13.16;100.00;100176.44;5113151;28;20320;-70
2022/10/22 07:16:15;;;;;;;1.52;0.95;;;;;;;13.22;100.00;100173.03;5113070;28;20108;-70
2022/10/22 07:18:42;;;;;;;1.63;0.70;;;;;;;13.28;100.00;100186.44;5113075;28;20032;-70
2022/10/22 07:21:09;;;;;;;1.05;0.88;;;;;;;13.31;100.00;100190.59;5112794;28;20080;-68
2022/10/22 07:23:35;;;;;;;0.75;0.60;;;;;;;13.34;100.00;100182.19;5113015;28;20040;-68
2022/10/22 07:26:01;;;;;;;0.77;0.55;;;;;;;13.41;100.00;100198.28;5113105;28;20035;-69
2022/10/22 07:28:28;;;;;;;0.85;0.60;;;;;;;13.47;100.00;100190.31;5112911;27;20081;-68
2022/10/22 07:30:53;;;;;;;1.00;0.52;;;;;;;13.53;100.00;100194.06;5112502;28;20408;-69
2022/10/22 07:33:19;;;;;;;0.82;0.82;;;;;;;13.54;100.00;100201.09;5112840;28;20038;-68
2022/10/22 07:35:45;;;;;;;0.88;0.70;;;;;;;13.61;100.00;100204.63;5112657;28;20028;-69
2022/10/22 07:38:11;;;;;;;1.38;1.23;;;;;;;13.68;100.00;100199.34;5112889;28;20099;-69
2022/10/22 07:40:36;;;;;;;2.40;1.05;;;;;;;13.74;100.00;100206.59;5112351;28;20500;-68
2022/10/22 07:43:03;;;;;;;1.10;0.77;;;;;;;13.79;100.00;100212.19;5112669;28;20066;-67
2022/10/22 07:45:28;;;;;;;1.58;0.70;;;;;;;13.81;100.00;100204.78;5112645;28;20118;-68
2022/10/22 07:47:54;;;;;;;2.08;1.10;;;;;;;13.91;100.00;100210.63;5112438;28;20489;-69
2022/10/22 07:50:19;;;;;;;0.90;0.68;;;;;;;14.01;100.00;100204.91;5112481;28;20039;-67
2022/10/22 07:52:45;;;;;;;0.80;0.80;;;;;;;14.13;100.00;100206.03;5112312;28;20056;-67
2022/10/22 07:55:12;;;;;;;0.90;0.60;;;;;;;14.23;100.00;100203.00;5113107;28;20122;-68
2022/10/22 07:57:38;;;;;;;1.33;0.68;;;;;;;14.35;100.00;100204.09;5112212;28;20503;-67
2022/10/22 08:00:05;;;;;;;1.60;0.70;;;;;;;14.39;100.00;100206.16;5112229;28;20055;-68
2022/10/22 08:02:37;;;;;;;0.85;0.75;;;;;;;14.46;100.00;100208.03;5112248;28;20043;-67
2022/10/22 08:05:03;;;;;;;0.38;0.38;;;;;;;14.52;100.00;100209.97;5112399;28;20039;-66
2022/10/22 08:07:28;;;;;;;2.75;0.40;;;;;;;14.55;100.00;100212.25;5112184;28;20040;-67
2022/10/22 08:09:53;;;;;;;0.70;0.52;;;;;;;14.59;100.00;100210.81;5112021;28;20154;-67
2022/10/22 08:12:19;;;;;;;3.17;0.70;;;;;;;14.65;100.00;100213.53;5111931;28;20035;-67
2022/10/22 08:14:44;;;;;;;0.30;0.30;;;;;;;14.71;100.00;100219.94;5112228;28;20484;-67
2022/10/22 08:17:10;;;;;;;0.68;0.45;;;;;;;14.73;100.00;100220.56;5112069;28;20042;-67
2022/10/22 08:19:35;;;;;;;0.73;0.60;;;;;;;14.77;100.00;100221.00;5112148;28;20484;-67
2022/10/22 08:22:01;;;;;;;1.00;0.50;;;;;;;14.81;100.00;100219.56;5111667;28;20040;-68
2022/10/22 08:24:27;;;;;;;0.85;0.60;;;;;;;14.86;100.00;100227.81;5112078;28;20063;-68
2022/10/22 08:26:54;;;;;;;0.32;0.32;;;;;;;14.89;100.00;100228.25;5111933;28;20147;-68
2022/10/22 08:29:22;;;;;;;0.82;0.63;;;;;;;14.94;100.00;100230.34;5110775;28;20046;-67
2022/10/22 08:31:48;;;;;;;1.23;0.65;;;;;;;14.98;100.00;100231.56;5111611;28;20143;-66
2022/10/22 08:34:13;;;;;;;0.82;0.63;;;;;;;15.04;100.00;100244.19;5112021;28;20425;-67
2022/10/22 08:36:39;;;;;;;0.50;0.50;;;;;;;15.09;100.00;100246.25;5111714;28;20046;-66
2022/10/22 08:39:04;;;;;;;0.30;0.30;;;;;;;15.11;100.00;100247.69;5111946;28;20130;-67
2022/10/22 08:41:37;;;;;;;0.90;0.40;;;;;;;15.17;100.00;100246.06;5111452;28;20059;-67
2022/10/22 08:44:11;;;;;;;0.65;0.52;;;;;;;15.19;100.00;100252.03;5111875;28;20042;-67
2022/10/22 08:47:09;;;;;;;0.30;0.30;;;;;;;15.20;100.00;100257.25;5111974;28;20046;-66
2022/10/22 08:49:37;;;;;;;0.82;0.50;;;;;;;15.19;100.00;100258.28;5111505;28;20497;-67
2022/10/22 08:52:03;;;;;;;0.60;0.32;;;;;;;15.20;100.00;100259.91;5111304;28;20040;-53
2022/10/22 08:54:52;;;;;;;0.85;0.60;;;;;;;15.26;100.00;100257.44;5111708;28;20032;-67
2022/10/22 08:57:42;;;;;;;0.60;0.40;;;;;;;15.35;100.00;100264.28;5111730;28;20032;-67
2022/10/22 09:00:16;;;;;;;2.80;0.70;;;;;;;15.39;100.00;100263.69;5111534;28;20039;-64
2022/10/22 09:03:06;;;;;;;0.68;0.40;;;;;;;15.46;100.00;100266.38;5111646;28;20027;-66
2022/10/22 09:05:47;;;;;;;1.23;0.60;;;;;;;15.54;100.00;100271.53;5111639;28;20609;-66
2022/10/22 09:08:14;;;;;;;0.60;0.60;;;;;;;15.60;100.00;100276.09;5113055;28;20070;-66
2022/10/22 09:10:45;;;;;;;0.70;0.40;;;;;;;15.69;100.00;100287.47;5115150;28;20042;-65
2022/10/22 09:13:14;;;;;;;0.65;0.57;;;;;;;15.74;100.00;100285.00;5115502;28;20055;-66
2022/10/22 09:15:40;;;;;;;0.75;0.45;;;;;;;15.78;100.00;100282.72;5115340;28;20046;-65
2022/10/22 09:18:15;;;;;;;0.50;0.30;;;;;;;15.86;100.00;100282.53;5115525;28;20032;-66
2022/10/22 09:20:49;;;;;;;1.10;0.50;;;;;;;15.93;100.00;100283.34;5114931;28;20392;-66
2022/10/22 09:23:31;;;;;;;0.25;0.25;;;;;;;16.00;100.00;100284.19;5115389;28;20095;-65
2022/10/22 09:25:56;;;;;;;0.50;0.50;;;;;;;16.11;100.00;100285.41;5115098;28;20491;-65
2022/10/22 09:28:22;;;;;;;0.30;0.30;;;;;;;16.20;100.00;100278.78;5115207;28;20040;-65
2022/10/22 09:30:47;;;;;;;0.52;0.52;;;;;;;16.42;100.00;100287.41;5114720;28;20028;-66
2022/10/22 09:33:15;;;;;;;0.77;0.47;;;;;;;16.71;100.00;100286.13;5115019;28;20167;-66
2022/10/22 09:35:52;;;;;;;0.38;0.32;;;;;;;17.01;100.00;100294.47;5114741;28;20124;-65
2022/10/22 09:38:19;;;;;;;;;;;;;;;17.20;100.00;100296.25;5115455;28;20122;-66
2022/10/22 09:40:48;;;;;;;0.38;0.25;;;;;;;17.33;100.00;100289.97;5114683;28;19908;-65
2022/10/22 09:43:14;;;;;;;3.15;1.00;;;;;;;17.48;100.00;100287.81;5115044;28;20459;-66
2022/10/22 09:45:41;;;;;;;0.75;0.40;;;;;;;17.82;100.00;100300.03;5114818;27;20165;-66
2022/10/22 09:48:25;;;;;;;2.63;0.60;;;;;;;18.10;97.75;100298.75;5114861;28;20073;-66
2022/10/22 09:50:59;;;;;;;0.73;0.57;;;;;;;18.46;93.29;100298.00;5114485;28;20069;-65
2022/10/22 09:53:27;;;;;;;0.30;0.20;;;;;;;19.20;89.69;100301.50;5114852;28;20028;-66
2022/10/22 09:55:56;;;;;;;0.50;0.25;;;;;;;19.83;85.00;100303.72;5114672;28;20032;-66
2022/10/22 09:58:22;;;;;;;0.93;0.52;;;;;;;20.50;80.91;100292.59;5114675;28;20046;-66
2022/10/22 10:00:53;;;;;;;0.57;0.40;;;;;;;21.23;78.31;100299.22;5114254;28;20036;-66
2022/10/22 10:03:24;;;;;;;0.20;0.20;;;;;;;21.75;72.42;100299.94;5114376;28;20045;-66
2022/10/22 10:05:56;;;;;;;0.93;0.30;;;;;;;22.31;70.40;100303.56;5114330;28;20039;-66
2022/10/22 10:08:22;;;;;;;0.30;0.30;;;;;;;22.75;66.51;100303.59;5114502;28;20139;-66
2022/10/22 10:10:58;;;;;;;0.10;0.10;;;;;;;23.07;65.82;100306.47;5113016;28;20027;-65
2022/10/22 10:13:48;;;;;;;0.47;0.20;;;;;;;23.46;67.91;100304.44;5114347;28;20460;-67
2022/10/22 10:16:31;;;;;;;1.10;0.40;;;;;;;23.82;65.73;100304.81;5114286;28;20278;-66
2022/10/22 10:19:08;;;;;;;0.45;0.30;;;;;;;23.86;61.79;100302.38;5114096;28;20038;-67
2022/10/22 10:21:52;;;;;;;;;;;;;;;24.25;60.69;100302.94;5114361;28;20051;-67
2022/10/22 10:24:27;;;;;;;0.40;0.20;;;;;;;24.23;59.31;100308.66;5114129;28;19961;-52
2022/10/22 10:27:12;;;;;;;1.08;0.57;;;;;;;24.28;59.58;100311.44;5113983;28;20038;-55
2022/10/22 10:30:04;;;;;;;0.75;0.20;;;;;;;25.25;56.13;100305.69;5113934;28;20027;-58
2022/10/22 10:32:45;;;;;;;0.77;0.40;;;;;;;24.88;55.27;100306.59;5114153;28;20036;-60
2022/10/22 10:35:24;;;;;;;0.40;0.30;;;;;;;25.23;56.95;100305.09;5113974;28;20027;-58
2022/10/22 10:37:55;;;;;;;0.45;0.32;;;;;;;24.77;57.08;100304.91;5113995;28;20031;-56
2022/10/22 10:40:46;;;;;;;0.43;0.20;;;;;;;25.22;53.92;100301.56;5111662;28;20051;-54
2022/10/22 10:43:24;;;;;;;0.55;0.35;;;;;;;25.30;53.94;100313.84;5113692;28;20040;-55
2022/10/22 10:46:16;;;;;;;0.80;0.60;;;;;;;24.54;55.48;100311.63;5113572;28;20488;-56
2022/10/22 10:48:52;;;;;;;1.15;0.50;;;;;;;24.17;57.08;100307.00;5113395;28;20119;-53
2022/10/22 10:51:39;;;;;;;0.40;0.30;;;;;;;23.59;58.80;100311.38;5113059;28;20031;-57
2022/10/22 10:54:16;;;;;;;0.20;0.20;;;;;;;23.80;59.33;100312.44;5113513;28;20044;-55
2022/10/22 10:57:03;;;;;;;0.45;0.30;;;;;;;24.35;58.45;100316.66;5113320;28;20046;-54
2022/10/22 10:59:53;;;;;;;0.32;0.30;;;;;;;24.70;57.53;100315.22;5113126;28;20119;-53
2022/10/22 11:02:47;;;;;;;0.57;0.30;;;;;;;25.02;55.10;100307.75;5113020;28;20503;-52
2022/10/22 11:05:57;;;;;;;0.68;0.47;;;;;;;25.77;53.92;100308.22;5110029;28;20078;-55
2022/10/22 11:08:28;;;;;;;0.32;0.32;;;;;;;26.21;51.24;100292.13;5110748;28;20051;-54
2022/10/22 11:10:56;;;;;;;0.80;0.52;;;;;;;26.23;50.79;100306.28;5112805;28;20058;-53
2022/10/22 11:13:40;;;;;;;1.17;0.68;;;;;;;26.81;49.91;100305.91;5113136;28;20118;-54
2022/10/22 11:16:19;;;;;;;1.27;0.47;;;;;;;26.82;46.09;100299.34;5112898;28;20036;-54
2022/10/22 11:18:54;;;;;;;0.77;0.57;;;;;;;27.75;47.40;100301.28;5112869;28;20035;-54
2022/10/22 11:21:31;;;;;;;1.30;0.82;;;;;;;27.37;46.83;100296.59;5112576;28;20066;-54
2022/10/22 11:24:07;;;;;;;1.00;0.82;;;;;;;28.12;45.70;100297.16;5110982;28;20043;-56
2022/10/22 11:26:51;;;;;;;1.80;0.65;;;;;;;28.51;45.51;100304.44;5112735;28;20039;-54
2022/10/22 11:29:29;;;;;;;1.73;1.40;;;;;;;28.22;45.94;100302.50;5106983;28;20172;-55
2022/10/22 11:31:56;;;;;;;1.20;0.70;;;;;;;28.05;43.29;100300.22;5107668;28;20031;-56
2022/10/22 11:34:31;;;;;;;0.60;0.43;;;;;;;27.11;43.16;100298.66;5092417;28;20031;-52
2022/10/22 11:36:57;;;;;;;0.70;0.45;;;;;;;27.44;44.09;100291.63;5092180;28;20038;-51
2022/10/22 11:39:36;;;;;;;1.42;0.80;;;;;;;27.74;43.03;100299.66;5092378;28;20032;-55
2022/10/22 11:42:10;;;;;;;0.60;0.45;;;;;;;28.37;42.90;100304.31;5091667;28;20035;-58
2022/10/22 11:45:02;;;;;;;0.68;0.50;;;;;;;28.36;42.81;100300.78;5092316;28;20067;-59
2022/10/22 11:47:32;;;;;;;1.90;0.50;;;;;;;28.33;42.00;100297.78;5092114;28;20077;-58
2022/10/22 11:50:24;;;;;;;0.82;0.50;;;;;;;28.84;40.92;100299.94;5092123;28;20443;-61
2022/10/22 11:53:17;;;;;;;2.20;1.10;;;;;;;28.59;40.89;100293.66;5091852;28;20036;-63
2022/10/22 11:55:50;;;;;;;0.60;0.40;;;;;;;28.12;40.74;100291.66;5091899;28;20036;-61
2022/10/22 11:58:46;;;;;;;2.45;0.65;;;;;;;28.12;41.55;100291.66;5091768;28;20461;-62
2022/10/22 12:01:11;;;;;;;0.80;0.65;;;;;;;28.49;41.53;100290.19;5086932;28;20050;-63
2022/10/22 12:03:48;;;;;;;1.50;0.75;;;;;;;28.52;41.65;100293.19;5091920;28;20028;-61
2022/10/22 12:06:18;;;;;;;2.03;0.90;;;;;;;29.60;40.22;100284.38;5091896;28;20032;-63
2022/10/22 12:08:56;;;;;;;3.20;1.33;;;;;;;28.97;41.40;100284.72;5091993;28;20046;-60
2022/10/22 12:11:34;;;;;;;3.22;0.90;;;;;;;28.89;41.45;100295.22;5091394;28;20517;-62
2022/10/22 12:14:11;;;;;;;1.58;0.70;;;;;;;28.69;40.07;100289.16;5091949;28;20642;-63
2022/10/22 12:16:42;;;;;;;2.33;0.63;;;;;;;28.45;40.75;100283.69;5091739;28;20500;-61
2022/10/22 12:19:23;;;;;;;1.38;0.75;;;;;;;27.71;40.52;100285.72;5091703;28;20031;-63
2022/10/22 12:21:54;;;;;;;4.45;1.10;;;;;;;26.80;43.91;100276.94;5091325;28;20035;-63
2022/10/22 12:24:22;;;;;;;3.42;0.98;;;;;;;26.73;43.19;100270.94;5091786;28;20066;-61
2022/10/22 12:26:51;;;;;;;1.95;0.82;;;;;;;25.89;43.66;100256.13;5094932;28;20038;-63
2022/10/22 12:29:19;;;;;;;2.85;1.20;;;;;;;26.28;42.35;100264.53;5111940;28;20032;-62
2022/10/22 12:31:45;;;;;;;2.17;1.02;;;;;;;26.37;42.47;100262.84;5111516;28;20114;-60
2022/10/22 12:34:17;;;;;;;3.55;0.90;;;;;;;26.35;42.97;100259.59;5111869;28;20039;-60
2022/10/22 12:36:43;;;;;;;1.08;0.70;;;;;;;26.31;42.88;100258.50;5110405;28;20088;-61
2022/10/22 12:39:15;;;;;;;2.13;0.60;;;;;;;27.06;41.02;100253.06;5111967;28;20485;-62
2022/10/22 12:41:41;;;;;;;1.50;0.57;;;;;;;27.25;41.42;100247.72;5111618;28;20043;-64
2022/10/22 12:44:14;;;;;;;1.70;0.88;;;;;;;27.22;41.92;100251.03;5114888;28;20040;-64
2022/10/22 12:46:41;;;;;;;3.22;1.20;;;;;;;27.13;40.12;100256.31;5115937;28;20039;-61
2022/10/22 12:49:17;;;;;;;1.00;0.60;;;;;;;26.75;41.06;100253.19;5115943;28;20114;-63
2022/10/22 12:51:44;;;;;;;2.43;0.87;;;;;;;26.47;42.00;100257.41;5115565;28;20111;-61
2022/10/22 12:54:21;;;;;;;4.77;0.80;;;;;;;25.98;42.39;100254.47;5115846;27;20342;-62
2022/10/22 12:56:46;;;;;;;1.23;0.73;;;;;;;25.81;42.87;100252.03;5115748;28;20372;-64
2022/10/22 12:59:19;;;;;;;0.85;0.73;;;;;;;25.02;44.55;100245.06;5115682;28;20067;-61
2022/10/22 13:01:46;;;;;;;5.40;1.17;;;;;;;24.59;47.06;100249.03;5115310;28;20067;-62
2022/10/22 13:04:19;;;;;;;2.13;1.10;;;;;;;24.20;47.76;100240.34;5115643;28;20036;-58
2022/10/22 13:06:51;;;;;;;2.15;0.98;;;;;;;24.19;47.24;100244.13;5115624;28;20050;-59
2022/10/22 13:09:23;;;;;;;1.10;0.75;;;;;;;23.67;47.88;100242.97;5115838;27;20047;-62
2022/10/22 13:12:04;;;;;;;1.55;0.70;;;;;;;23.68;48.60;100250.06;5115091;28;20369;-59
2022/10/22 13:14:36;;;;;;;2.35;0.88;;;;;;;23.56;47.68;100252.91;5115484;28;20100;-60
2022/10/22 13:17:02;;;;;;;1.10;1.00;;;;;;;23.67;49.43;100247.56;5115391;28;20040;-58
2022/10/22 13:19:40;;;;;;;2.30;0.95;;;;;;;23.50;49.29;100250.41;5115613;28;20114;-58
2022/10/22 13:22:51;;;;;;;1.65;0.80;;;;;;;23.50;49.88;100247.69;5113639;28;20085;-61
2022/10/22 13:25:18;;;;;;;2.15;0.82;;;;;;;23.27;50.69;100241.47;5092262;28;20036;-62
2022/10/22 13:27:51;;;;;;;3.23;1.10;;;;;;;23.17;49.89;100241.41;5112404;28;20435;-62
2022/10/22 13:30:23;;;;;;;2.10;0.70;;;;;;;23.17;51.39;100240.59;5114853;27;20052;-63
2022/10/22 13:32:52;;;;;;;6.18;1.40;;;;;;;23.19;50.09;100236.53;5115102;28;20027;-62
2022/10/22 13:35:21;;;;;;;3.35;1.50;;;;;;;23.07;52.03;100235.03;5114949;28;20501;-63
2022/10/22 13:37:47;;;;;;;2.15;0.90;;;;;;;23.14;50.53;100238.34;5114983;28;20031;-65
2022/10/22 13:40:13;;;;;;;2.33;0.77;;;;;;;23.04;50.21;100235.56;5114697;28;20389;-64
2022/10/22 13:42:38;;;;;;;3.13;1.17;;;;;;;23.02;49.83;100235.81;5115331;28;20028;-62
2022/10/22 13:45:04;;;;;;;1.20;0.85;;;;;;;22.81;51.56;100234.72;5114941;28;20119;-61
2022/10/22 13:47:30;;;;;;;2.00;0.80;;;;;;;22.72;51.64;100230.81;5114789;28;20031;-61
2022/10/22 13:49:59;;;;;;;2.42;0.82;;;;;;;22.74;49.43;100236.81;5114579;28;20504;-57
2022/10/22 13:52:37;;;;;;;6.18;1.35;;;;;;;22.75;51.63;100235.72;5114497;28;20032;-57
2022/10/22 13:55:17;;;;;;;2.67;0.85;;;;;;;22.58;51.04;100235.00;5114298;28;20036;-57
2022/10/22 13:57:43;;;;;;;5.10;1.15;;;;;;;22.42;50.67;100223.94;5114560;28;20040;-57
2022/10/22 14:00:17;;;;;;;1.77;0.68;;;;;;;22.43;50.65;100228.31;5114308;28;20035;-58
2022/10/22 14:02:46;;;;;;;3.13;0.70;;;;;;;22.43;50.49;100228.31;5114315;28;20055;-59
2022/10/22 14:05:12;;;;;;;1.73;0.65;;;;;;;22.39;47.19;100231.78;5114281;28;20503;-60
2022/10/22 14:07:38;;;;;;;2.63;0.80;;;;;;;22.44;49.49;100232.66;5114448;28;20027;-59
2022/10/22 14:10:22;;;;;;;1.70;0.65;;;;;;;22.38;48.57;100228.25;5114236;28;20476;-61
2022/10/22 14:12:48;;;;;;;2.72;0.70;;;;;;;22.24;48.14;100235.09;5114314;28;20095;-54
2022/10/22 14:15:17;;;;;;;1.17;0.70;;;;;;;22.23;46.98;100227.19;5114169;28;20445;-55
2022/10/22 14:17:45;;;;;;;2.55;0.80;;;;;;;22.19;46.52;100221.47;5114299;28;20036;-58
2022/10/22 14:20:22;;;;;;;4.15;0.95;;;;;;;22.16;47.25;100220.06;5113948;28;20039;-58
2022/10/22 14:22:48;;;;;;;;;;;;;;;22.17;46.96;100219.00;5114563;28;20118;-61
2022/10/22 14:25:15;;;;;;;1.02;0.80;;;;;;;22.08;48.21;100233.19;5114031;28;19954;-55
2022/10/22 14:27:41;;;;;;;1.35;0.70;;;;;;;22.08;49.40;100225.88;5114109;28;20058;-58
2022/10/22 14:30:07;;;;;;;3.80;1.20;;;;;;;21.98;49.42;100236.59;5113799;28;20488;-58
2022/10/22 14:32:32;;;;;;;2.55;0.73;;;;;;;21.92;49.67;100229.44;5112538;28;20088;-58
2022/10/22 14:35:00;;;;;;;1.85;0.90;;;;;;;21.90;50.24;100234.28;5113871;28;20043;-56
2022/10/22 14:37:25;;;;;;;2.80;1.00;;;;;;;21.79;51.19;100236.03;5113835;27;20043;-55
2022/10/22 14:39:58;;;;;;;1.23;0.60;;;;;;;21.81;49.69;100225.75;5113885;28;20046;-58
2022/10/22 14:42:24;;;;;;;2.35;1.30;;;;;;;21.77;50.19;100231.91;5113628;28;20503;-59
2022/10/22 14:44:50;;;;;;;2.08;1.02;;;;;;;21.74;50.34;100235.94;5113812;28;20396;-58
2022/10/22 14:47:15;;;;;;;3.95;0.70;;;;;;;21.65;49.68;100227.41;5113673;28;20040;-60
2022/10/22 14:49:40;;;;;;;4.47;1.23;;;;;;;21.53;50.57;100229.38;5113633;28;20111;-59
2022/10/22 14:52:06;;;;;;;2.72;1.15;;;;;;;21.48;50.18;100232.00;5113180;28;20491;-60
2022/10/22 14:54:32;;;;;;;2.72;0.85;;;;;;;21.46;51.07;100233.31;5114842;28;20050;-57
2022/10/22 14:56:58;;;;;;;2.72;0.93;;;;;;;21.43;51.24;100233.78;5113359;28;20043;-60
2022/10/22 14:59:23;;;;;;;0.88;0.75;;;;;;;21.39;51.33;100233.47;5113345;28;20416;-61
2022/10/22 15:01:49;;;;;;;1.75;1.00;;;;;;;21.38;52.05;100229.09;5113124;28;20051;-61
2022/10/22 15:04:14;;;;;;;3.75;1.40;;;;;;;21.33;52.05;100232.56;5113359;28;20500;-59
2022/10/22 15:06:39;;;;;;;2.85;1.40;;;;;;;21.33;52.44;100237.97;5112403;28;20039;-60
2022/10/22 15:09:05;;;;;;;5.00;1.25;;;;;;;21.23;52.88;100240.47;5113276;28;20039;-59
2022/10/22 15:11:30;;;;;;;2.03;1.20;;;;;;;21.23;53.27;100235.03;5112740;28;20477;-58
2022/10/22 15:13:56;;;;;;;2.97;1.48;;;;;;;21.24;53.77;100238.56;5113062;28;20042;-58
2022/10/22 15:16:21;;;;;;;4.47;1.10;;;;;;;21.12;53.92;100238.63;5113070;28;20405;-60
2022/10/22 15:18:46;;;;;;;6.97;2.50;;;;;;;21.09;54.51;100242.66;5113127;28;20031;-60
2022/10/22 15:21:14;;;;;;;3.75;1.05;;;;;;;21.01;54.44;100237.63;5112660;28;20036;-58
2022/10/22 15:23:40;;;;;;;7.95;1.10;;;;;;;20.95;54.40;100238.59;5111747;28;20502;-56
2022/10/22 15:26:07;;;;;;;3.47;1.27;;;;;;;20.90;55.69;100235.78;5112697;28;20036;-58
2022/10/22 15:28:32;;;;;;;3.67;1.50;;;;;;;20.89;57.08;100236.84;5112836;28;20476;-57
2022/10/22 15:30:59;;;;;;;4.20;1.45;;;;;;;20.85;57.79;100241.09;5112424;28;20042;-58
2022/10/22 15:33:26;;;;;;;4.90;1.40;;;;;;;20.73;57.70;100233.00;5112837;28;20553;-57
2022/10/22 15:35:51;;;;;;;3.17;1.45;;;;;;;20.71;58.00;100229.72;5112687;28;20177;-56
2022/10/22 15:38:17;;;;;;;2.97;1.10;;;;;;;20.63;57.47;100230.09;5112711;28;20127;-59
2022/10/22 15:40:42;;;;;;;1.92;0.93;;;;;;;20.47;60.02;100223.53;5112291;28;20126;-57
2022/10/22 15:43:08;;;;;;;3.45;1.45;;;;;;;20.49;63.21;100240.38;5112533;28;20028;-59
2022/10/22 15:45:33;;;;;;;4.40;2.15;;;;;;;20.39;65.48;100239.31;5112499;28;20137;-58
2022/10/22 15:47:59;;;;;;;6.68;1.83;;;;;;;20.38;64.57;100233.06;5112620;28;20488;-61
2022/10/22 15:50:24;;;;;;;3.05;1.35;;;;;;;20.30;64.87;100223.44;5112164;28;20504;-59
2022/10/22 15:52:50;;;;;;;7.13;2.70;;;;;;;20.08;68.68;100232.38;5112456;28;20040;-58
2022/10/22 15:55:15;;;;;;;4.00;1.80;;;;;;;19.86;71.26;100235.69;5112265;28;20070;-62
2022/10/22 15:57:41;;;;;;;7.32;1.95;;;;;;;19.43;76.64;100244.03;5112350;28;20378;-60